createdAt,value
2022-10-23T00:03:14.659Z,9.23
2022-10-23T00:08:17.205Z,9.07
2022-10-23T00:13:19.437Z,8.00
2022-10-23T00:18:21.841Z,8.03
2022-10-23T00:23:25.047Z,5.53
2022-10-23T00:28:27.366Z,7.27
2022-10-23T00:33:30.002Z,7.60
2022-10-23T00:38:32.421Z,9.63
2022-10-23T00:43:54.745Z,7.53
2022-10-23T00:48:58.060Z,9.53
2022-10-23T00:54:23.027Z,5.50
2022-10-23T00:59:26.203Z,7.53
2022-10-23T01:04:29.131Z,8.67
2022-10-23T01:09:52.899Z,8.27
2022-10-23T01:15:01.751Z,7.80
2022-10-23T01:20:33.737Z,7.17
2022-10-23T01:26:09.861Z,7.53
2022-10-23T01:31:18.285Z,5.50
2022-10-23T01:36:27.176Z,7.83
2022-10-23T01:41:39.390Z,7.43
2022-10-23T01:46:43.909Z,7.97
2022-10-23T01:51:53.265Z,11.27
2022-10-23T01:56:58.567Z,7.73
2022-10-23T02:02:06.567Z,11.33
2022-10-23T02:07:09.191Z,9.00
2022-10-23T02:12:32.197Z,7.93
2022-10-23T02:17:47.098Z,4.77
2022-10-23T02:22:59.842Z,8.27
2022-10-23T02:28:07.675Z,8.97
2022-10-23T02:33:17.918Z,8.27
2022-10-23T02:38:31.513Z,8.07
2022-10-23T02:43:41.251Z,6.57
2022-10-23T02:48:52.663Z,8.40
2022-10-23T02:54:11.917Z,9.07
2022-10-23T02:59:32.867Z,11.10
2022-10-23T03:04:39.198Z,8.90
2022-10-23T03:09:41.671Z,13.47
2022-10-23T03:14:43.969Z,9.70
2022-10-23T03:19:47.018Z,9.20
2022-10-23T03:24:49.885Z,6.77
2022-10-23T03:29:52.317Z,10.17
2022-10-23T03:34:55.106Z,9.23
2022-10-23T03:39:58.270Z,7.83
2022-10-23T03:45:00.720Z,8.30
2022-10-23T03:50:04.122Z,5.73
2022-10-23T03:55:09.388Z,10.23
2022-10-23T04:00:13.042Z,12.47
2022-10-23T04:05:22.924Z,7.23
2022-10-23T04:10:30.495Z,7.40
2022-10-23T04:15:33.008Z,7.20
2022-10-23T04:20:37.252Z,7.37
2022-10-23T04:25:39.562Z,5.53
2022-10-23T04:30:42.213Z,4.93
2022-10-23T04:35:47.811Z,4.13
2022-10-23T04:40:50.206Z,4.73
2022-10-23T04:45:56.896Z,4.57
2022-10-23T04:51:01.984Z,5.87
2022-10-23T04:56:23.265Z,5.33
2022-10-23T05:01:32.194Z,5.33
2022-10-23T05:06:35.253Z,5.40
2022-10-23T05:12:16.142Z,5.27
2022-10-23T05:17:30.256Z,4.63
2022-10-23T05:22:37.082Z,5.30
2022-10-23T05:27:42.911Z,5.30
2022-10-23T05:32:47.845Z,5.43
2022-10-23T05:37:52.329Z,4.10
2022-10-23T05:43:00.176Z,5.03
2022-10-23T05:48:34.957Z,3.60
2022-10-23T05:53:54.660Z,7.30
2022-10-23T05:59:08.685Z,7.20
2022-10-23T06:04:46.457Z,4.13
2022-10-23T06:10:07.617Z,4.10
2022-10-23T06:15:15.076Z,6.90
2022-10-23T06:20:44.189Z,4.10
2022-10-23T06:25:58.620Z,5.37
2022-10-23T06:31:12.108Z,5.07
2022-10-23T06:36:14.525Z,5.27
2022-10-23T06:41:21.097Z,5.63
2022-10-23T06:46:32.866Z,6.40
2022-10-23T06:51:53.859Z,4.43
2022-10-23T06:56:58.475Z,4.67
2022-10-23T07:02:11.298Z,6.70
2022-10-23T07:07:15.048Z,6.83
2022-10-23T07:12:21.630Z,5.67
2022-10-23T07:17:30.742Z,4.10
2022-10-23T07:22:34.382Z,6.43
2022-10-23T07:27:47.993Z,6.07
2022-10-23T07:32:51.785Z,4.73
2022-10-23T07:38:14.590Z,5.83
2022-10-23T07:43:23.040Z,4.53
2022-10-23T07:48:27.593Z,4.93
2022-10-23T07:53:37.189Z,3.50
2022-10-23T07:58:46.249Z,4.40
2022-10-23T08:03:55.001Z,4.27
2022-10-23T08:08:59.891Z,5.43
2022-10-23T08:14:10.166Z,3.70
2022-10-23T08:19:14.612Z,5.20
2022-10-23T08:24:18.718Z,4.83
2022-10-23T08:29:24.370Z,3.43
2022-10-23T08:34:29.494Z,3.43
2022-10-23T08:39:32.675Z,4.47
2022-10-23T08:45:10.672Z,4.30
2022-10-23T08:50:32.075Z,3.10
2022-10-23T08:55:37.286Z,3.27
2022-10-23T09:00:42.336Z,3.30
2022-10-23T09:06:01.658Z,3.53
2022-10-23T09:11:42.941Z,2.37
2022-10-23T09:17:08.371Z,2.33
2022-10-23T09:22:12.047Z,2.33
2022-10-23T09:27:18.137Z,3.37
2022-10-23T09:32:33.869Z,2.90
2022-10-23T09:37:48.412Z,3.70
2022-10-23T09:43:11.688Z,3.23
2022-10-23T09:48:17.988Z,2.83
2022-10-23T09:53:30.403Z,4.73
2022-10-23T09:58:39.793Z,2.70
2022-10-23T10:03:50.002Z,3.87
2022-10-23T10:08:59.743Z,1.97
2022-10-23T10:14:23.192Z,3.30
2022-10-23T10:19:37.624Z,2.70
2022-10-23T10:25:13.026Z,3.47
2022-10-23T10:30:23.675Z,3.80
2022-10-23T10:35:42.910Z,3.23
2022-10-23T10:41:13.535Z,5.57
2022-10-23T10:46:35.367Z,3.30
2022-10-23T10:51:59.903Z,3.57
2022-10-23T10:57:11.038Z,2.53
2022-10-23T11:02:41.405Z,3.93
2022-10-23T11:07:52.817Z,3.93
2022-10-23T11:12:55.359Z,3.67
2022-10-23T11:18:01.518Z,3.50
2022-10-23T11:23:13.608Z,3.37
2022-10-23T11:28:34.079Z,4.77
2022-10-23T11:34:05.113Z,3.43
2022-10-23T11:39:17.779Z,3.03
2022-10-23T11:44:26.273Z,3.20
2022-10-23T11:49:28.694Z,2.40
2022-10-23T11:54:32.060Z,4.13
2022-10-23T11:59:37.403Z,3.90
2022-10-23T12:04:46.812Z,3.50
2022-10-23T12:10:20.653Z,3.77
2022-10-23T12:15:24.652Z,2.90
2022-10-23T12:20:51.718Z,4.40
2022-10-23T12:26:12.507Z,3.50
2022-10-23T12:31:25.273Z,5.03
2022-10-23T12:37:15.058Z,3.40
2022-10-23T12:42:27.010Z,4.03
2022-10-23T12:47:31.344Z,3.83
2022-10-23T12:52:39.415Z,4.10
2022-10-23T12:57:43.748Z,4.37
2022-10-23T13:02:46.767Z,2.77
2022-10-23T13:07:50.998Z,2.40
2022-10-23T13:13:06.767Z,5.03
2022-10-23T13:18:13.932Z,3.33
2022-10-23T13:23:24.675Z,3.30
2022-10-23T13:28:34.965Z,3.30
2022-10-23T13:33:38.767Z,4.40
2022-10-23T13:38:44.143Z,3.23
2022-10-23T13:43:48.406Z,4.93
2022-10-23T13:48:50.987Z,2.67
2022-10-23T13:53:54.546Z,3.60
2022-10-23T13:58:56.974Z,3.90
2022-10-23T14:03:59.981Z,3.73
2022-10-23T14:09:02.430Z,3.33
2022-10-23T14:14:04.745Z,4.30
2022-10-23T14:19:08.818Z,3.60
2022-10-23T14:24:11.318Z,3.27
2022-10-23T14:29:21.289Z,5.80
2022-10-23T14:34:26.272Z,4.00
2022-10-23T14:39:28.563Z,3.00
2022-10-23T14:44:30.883Z,4.03
2022-10-23T14:49:35.478Z,2.27
2022-10-23T14:54:38.477Z,3.23
2022-10-23T14:59:40.922Z,3.70
2022-10-23T15:04:43.584Z,4.60
2022-10-23T15:09:46.693Z,3.17
2022-10-23T15:14:49.154Z,4.27
2022-10-23T15:19:52.153Z,4.10
2022-10-23T15:24:56.342Z,5.73
2022-10-23T15:29:58.771Z,3.93
2022-10-23T15:35:01.162Z,3.73
2022-10-23T15:40:03.981Z,5.90
2022-10-23T15:45:07.071Z,4.53
2022-10-23T15:50:10.073Z,4.83
2022-10-23T15:55:12.532Z,5.03
2022-10-23T16:00:18.305Z,4.23
2022-10-23T16:05:22.958Z,4.23
2022-10-23T16:10:25.380Z,3.60
2022-10-23T16:15:27.660Z,4.17
2022-10-23T16:20:30.601Z,3.00
2022-10-23T16:25:36.453Z,3.90
2022-10-23T16:30:42.411Z,3.10
2022-10-23T16:35:44.792Z,2.97
2022-10-23T16:40:54.562Z,4.10
2022-10-23T16:46:17.581Z,1.93
2022-10-23T16:51:23.481Z,3.43
2022-10-23T16:56:30.991Z,3.67
2022-10-23T17:01:33.927Z,1.93
2022-10-23T17:06:36.803Z,3.53
2022-10-23T17:11:40.746Z,1.40
2022-10-23T17:16:47.205Z,3.23
2022-10-23T17:21:49.749Z,2.10
2022-10-23T17:26:53.870Z,3.13
2022-10-23T17:31:56.189Z,2.20
2022-10-23T17:36:58.478Z,2.47
2022-10-23T17:42:01.070Z,3.37
2022-10-23T17:47:03.699Z,2.90
2022-10-23T17:52:06.150Z,3.30
2022-10-23T17:57:08.587Z,1.70
2022-10-23T18:02:13.066Z,3.27
2022-10-23T18:07:15.941Z,2.60
2022-10-23T18:12:18.401Z,3.90
2022-10-23T18:17:20.716Z,2.83
2022-10-23T18:22:23.167Z,1.70
2022-10-23T18:27:25.635Z,2.53
2022-10-23T18:32:30.014Z,1.70
2022-10-23T18:37:34.722Z,3.37
2022-10-23T18:42:41.805Z,2.77
2022-10-23T18:47:44.850Z,2.53
2022-10-23T18:52:47.438Z,1.53
2022-10-23T18:57:49.985Z,1.63
2022-10-23T19:02:52.748Z,2.03
2022-10-23T19:07:55.363Z,1.67
2022-10-23T19:12:57.690Z,1.87
2022-10-23T19:18:00.760Z,3.13
2022-10-23T19:23:06.542Z,2.83
2022-10-23T19:28:09.191Z,2.63
2022-10-23T19:33:11.504Z,3.50
2022-10-23T19:38:13.833Z,1.83
2022-10-23T19:43:16.125Z,3.03
2022-10-23T19:48:18.473Z,3.47
2022-10-23T19:53:21.481Z,2.77
2022-10-23T19:58:23.728Z,2.00
2022-10-23T20:03:26.164Z,4.97
2022-10-23T20:08:32.627Z,4.23
2022-10-23T20:13:37.374Z,4.63
2022-10-23T20:18:39.715Z,3.43
2022-10-23T20:23:42.251Z,6.77
2022-10-23T20:28:51.020Z,3.93
2022-10-23T20:33:54.481Z,3.93
2022-10-23T20:38:59.074Z,3.63
2022-10-23T20:44:01.490Z,3.77
2022-10-23T20:49:04.167Z,3.43
2022-10-23T20:54:06.603Z,2.90
2022-10-23T20:59:17.465Z,5.03
2022-10-23T21:04:22.365Z,3.80
2022-10-23T21:09:25.289Z,3.47
2022-10-23T21:14:28.539Z,4.33
2022-10-23T21:19:31.049Z,3.73
2022-10-23T21:24:33.428Z,2.93
2022-10-23T21:29:35.845Z,5.57
2022-10-23T21:34:38.239Z,4.63
2022-10-23T21:39:42.062Z,3.93
2022-10-23T21:44:44.492Z,3.53
2022-10-23T21:49:46.766Z,3.83
2022-10-23T21:54:52.265Z,5.33
2022-10-23T21:59:54.593Z,3.70
2022-10-23T22:04:56.822Z,4.73
2022-10-23T22:09:59.221Z,3.37
2022-10-23T22:15:01.569Z,4.23
2022-10-23T22:20:04.360Z,4.40
2022-10-23T22:25:07.278Z,2.40
2022-10-23T22:30:10.113Z,5.17
2022-10-23T22:35:12.397Z,4.07
2022-10-23T22:40:14.844Z,4.40
2022-10-23T22:45:17.350Z,5.10
2022-10-23T22:50:19.680Z,3.90
2022-10-23T22:55:22.177Z,3.33
2022-10-23T23:00:24.677Z,3.47
2022-10-23T23:05:27.006Z,4.57
2022-10-23T23:10:29.493Z,3.30
2022-10-23T23:15:32.166Z,4.40
2022-10-23T23:20:34.901Z,5.37
2022-10-23T23:25:44.897Z,4.57
2022-10-23T23:30:48.482Z,5.60
2022-10-23T23:35:50.801Z,4.40
2022-10-23T23:40:53.962Z,5.03
2022-10-23T23:45:56.919Z,4.87
2022-10-23T23:50:59.162Z,6.13
2022-10-23T23:56:01.510Z,6.77
